sensor_id;sensor_type;location;lat;lon;timestamp;P1;durP1;ratioP1;P2;durP2;ratioP2
17171;SDS011;8701;50.150;8.756;2022-10-17T00:01:07;5.37;;;4.00;;
17171;SDS011;8701;50.150;8.756;2022-10-17T00:05:10;6.27;;;4.13;;
17171;SDS011;8701;50.150;8.756;2022-10-17T00:09:16;7.60;;;4.27;;
17171;SDS011;8701;50.150;8.756;2022-10-17T00:13:19;6.47;;;4.47;;
17171;SDS011;8701;50.150;8.756;2022-10-17T00:17:21;9.10;;;4.37;;
17171;SDS011;8701;50.150;8.756;2022-10-17T00:21:25;6.77;;;3.80;;
17171;SDS011;8701;50.150;8.756;2022-10-17T00:25:27;5.47;;;4.40;;
17171;SDS011;8701;50.150;8.756;2022-10-17T00:29:30;4.10;;;3.80;;
17171;SDS011;8701;50.150;8.756;2022-10-17T00:33:32;7.87;;;3.80;;
17171;SDS011;8701;50.150;8.756;2022-10-17T00:37:37;7.57;;;3.53;;
17171;SDS011;8701;50.150;8.756;2022-10-17T00:41:39;6.83;;;3.87;;
17171;SDS011;8701;50.150;8.756;2022-10-17T00:45:41;4.70;;;3.90;;
17171;SDS011;8701;50.150;8.756;2022-10-17T00:49:46;10.67;;;3.70;;
17171;SDS011;8701;50.150;8.756;2022-10-17T00:53:50;11.33;;;4.30;;
17171;SDS011;8701;50.150;8.756;2022-10-17T00:57:52;16.17;;;4.37;;
17171;SDS011;8701;50.150;8.756;2022-10-17T01:01:55;8.00;;;4.17;;
17171;SDS011;8701;50.150;8.756;2022-10-17T01:06:02;11.40;;;4.37;;
17171;SDS011;8701;50.150;8.756;2022-10-17T01:10:06;9.30;;;4.10;;
17171;SDS011;8701;50.150;8.756;2022-10-17T01:14:10;3.67;;;3.37;;
17171;SDS011;8701;50.150;8.756;2022-10-17T01:18:29;13.53;;;3.33;;
17171;SDS011;8701;50.150;8.756;2022-10-17T01:22:39;5.73;;;3.97;;
17171;SDS011;8701;50.150;8.756;2022-10-17T01:26:52;6.83;;;4.00;;
17171;SDS011;8701;50.150;8.756;2022-10-17T01:31:09;3.73;;;3.43;;
17171;SDS011;8701;50.150;8.756;2022-10-17T01:35:16;8.70;;;3.60;;
17171;SDS011;8701;50.150;8.756;2022-10-17T01:39:28;6.50;;;3.90;;
17171;SDS011;8701;50.150;8.756;2022-10-17T01:43:40;8.47;;;3.70;;
17171;SDS011;8701;50.150;8.756;2022-10-17T01:47:49;5.90;;;3.70;;
17171;SDS011;8701;50.150;8.756;2022-10-17T01:51:55;6.17;;;3.80;;
17171;SDS011;8701;50.150;8.756;2022-10-17T01:56:02;5.27;;;3.80;;
17171;SDS011;8701;50.150;8.756;2022-10-17T02:00:09;4.17;;;3.47;;
17171;SDS011;8701;50.150;8.756;2022-10-17T02:04:16;4.53;;;3.70;;
17171;SDS011;8701;50.150;8.756;2022-10-17T02:08:26;10.87;;;3.97;;
17171;SDS011;8701;50.150;8.756;2022-10-17T02:12:34;9.83;;;3.83;;
17171;SDS011;8701;50.150;8.756;2022-10-17T02:16:48;9.07;;;3.70;;
17171;SDS011;8701;50.150;8.756;2022-10-17T02:21:05;5.60;;;3.30;;
17171;SDS011;8701;50.150;8.756;2022-10-17T02:25:13;5.23;;;3.20;;
17171;SDS011;8701;50.150;8.756;2022-10-17T02:29:25;3.40;;;3.10;;
17171;SDS011;8701;50.150;8.756;2022-10-17T02:33:33;15.53;;;3.40;;
17171;SDS011;8701;50.150;8.756;2022-10-17T02:37:41;8.20;;;3.60;;
17171;SDS011;8701;50.150;8.756;2022-10-17T02:41:45;6.83;;;3.33;;
17171;SDS011;8701;50.150;8.756;2022-10-17T02:45:50;3.50;;;3.20;;
17171;SDS011;8701;50.150;8.756;2022-10-17T02:49:54;3.73;;;3.20;;
17171;SDS011;8701;50.150;8.756;2022-10-17T02:54:04;9.23;;;4.00;;
17171;SDS011;8701;50.150;8.756;2022-10-17T02:58:14;16.10;;;3.60;;
17171;SDS011;8701;50.150;8.756;2022-10-17T03:02:19;3.63;;;3.33;;
17171;SDS011;8701;50.150;8.756;2022-10-17T03:06:21;7.70;;;4.23;;
17171;SDS011;8701;50.150;8.756;2022-10-17T03:10:25;10.77;;;3.73;;
17171;SDS011;8701;50.150;8.756;2022-10-17T03:14:28;7.67;;;4.40;;
17171;SDS011;8701;50.150;8.756;2022-10-17T03:18:30;5.20;;;3.73;;
17171;SDS011;8701;50.150;8.756;2022-10-17T03:22:35;10.10;;;4.47;;
17171;SDS011;8701;50.150;8.756;2022-10-17T03:26:40;7.93;;;4.07;;
17171;SDS011;8701;50.150;8.756;2022-10-17T03:30:42;11.93;;;4.60;;
17171;SDS011;8701;50.150;8.756;2022-10-17T03:34:44;6.60;;;4.30;;
17171;SDS011;8701;50.150;8.756;2022-10-17T03:38:47;4.80;;;3.60;;
17171;SDS011;8701;50.150;8.756;2022-10-17T03:42:52;8.47;;;4.20;;
17171;SDS011;8701;50.150;8.756;2022-10-17T03:46:54;4.20;;;3.80;;
17171;SDS011;8701;50.150;8.756;2022-10-17T03:50:57;6.83;;;5.30;;
17171;SDS011;8701;50.150;8.756;2022-10-17T03:55:02;17.30;;;4.27;;
17171;SDS011;8701;50.150;8.756;2022-10-17T03:59:06;6.73;;;4.10;;
17171;SDS011;8701;50.150;8.756;2022-10-17T04:03:12;5.13;;;3.60;;
17171;SDS011;8701;50.150;8.756;2022-10-17T04:07:14;9.83;;;3.30;;
17171;SDS011;8701;50.150;8.756;2022-10-17T04:11:20;14.33;;;3.17;;
17171;SDS011;8701;50.150;8.756;2022-10-17T04:15:24;4.33;;;3.27;;
17171;SDS011;8701;50.150;8.756;2022-10-17T04:19:27;14.40;;;3.80;;
17171;SDS011;8701;50.150;8.756;2022-10-17T04:23:30;16.63;;;3.50;;
17171;SDS011;8701;50.150;8.756;2022-10-17T04:27:39;5.47;;;3.83;;
17171;SDS011;8701;50.150;8.756;2022-10-17T04:31:43;7.27;;;4.00;;
17171;SDS011;8701;50.150;8.756;2022-10-17T04:35:54;7.73;;;2.93;;
17171;SDS011;8701;50.150;8.756;2022-10-17T04:39:57;4.67;;;3.00;;
17171;SDS011;8701;50.150;8.756;2022-10-17T04:44:01;6.47;;;3.07;;
17171;SDS011;8701;50.150;8.756;2022-10-17T04:48:09;4.83;;;2.80;;
17171;SDS011;8701;50.150;8.756;2022-10-17T04:52:12;10.80;;;3.50;;
17171;SDS011;8701;50.150;8.756;2022-10-17T04:56:17;4.00;;;3.07;;
17171;SDS011;8701;50.150;8.756;2022-10-17T05:00:21;4.40;;;3.03;;
17171;SDS011;8701;50.150;8.756;2022-10-17T05:04:46;4.00;;;3.60;;
17171;SDS011;8701;50.150;8.756;2022-10-17T05:08:49;11.63;;;3.60;;
17171;SDS011;8701;50.150;8.756;2022-10-17T05:12:54;9.40;;;4.17;;
17171;SDS011;8701;50.150;8.756;2022-10-17T05:17:00;9.80;;;4.20;;
17171;SDS011;8701;50.150;8.756;2022-10-17T05:21:05;6.53;;;4.03;;
17171;SDS011;8701;50.150;8.756;2022-10-17T05:25:08;4.73;;;3.80;;
17171;SDS011;8701;50.150;8.756;2022-10-17T05:29:10;8.43;;;4.03;;
17171;SDS011;8701;50.150;8.756;2022-10-17T05:33:19;4.60;;;4.10;;
17171;SDS011;8701;50.150;8.756;2022-10-17T05:37:22;6.27;;;3.60;;
17171;SDS011;8701;50.150;8.756;2022-10-17T05:41:27;4.20;;;3.47;;
17171;SDS011;8701;50.150;8.756;2022-10-17T05:45:29;6.47;;;4.10;;
17171;SDS011;8701;50.150;8.756;2022-10-17T05:49:32;7.47;;;3.63;;
17171;SDS011;8701;50.150;8.756;2022-10-17T05:53:37;9.47;;;3.70;;
17171;SDS011;8701;50.150;8.756;2022-10-17T05:57:46;4.83;;;3.87;;
17171;SDS011;8701;50.150;8.756;2022-10-17T06:01:52;4.83;;;4.40;;
17171;SDS011;8701;50.150;8.756;2022-10-17T06:06:01;6.93;;;5.20;;
17171;SDS011;8701;50.150;8.756;2022-10-17T06:10:07;7.33;;;5.40;;
17171;SDS011;8701;50.150;8.756;2022-10-17T06:14:13;8.70;;;6.73;;
17171;SDS011;8701;50.150;8.756;2022-10-17T06:18:16;6.33;;;5.27;;
17171;SDS011;8701;50.150;8.756;2022-10-17T06:22:22;8.30;;;5.80;;
17171;SDS011;8701;50.150;8.756;2022-10-17T06:26:25;7.13;;;5.67;;
17171;SDS011;8701;50.150;8.756;2022-10-17T06:30:28;9.00;;;5.97;;
17171;SDS011;8701;50.150;8.756;2022-10-17T06:34:31;15.33;;;6.30;;
17171;SDS011;8701;50.150;8.756;2022-10-17T06:38:34;11.93;;;5.67;;
17171;SDS011;8701;50.150;8.756;2022-10-17T06:42:42;11.27;;;5.90;;
17171;SDS011;8701;50.150;8.756;2022-10-17T06:46:59;9.60;;;5.47;;
17171;SDS011;8701;50.150;8.756;2022-10-17T06:51:02;17.73;;;6.30;;
17171;SDS011;8701;50.150;8.756;2022-10-17T06:55:13;22.20;;;8.40;;
17171;SDS011;8701;50.150;8.756;2022-10-17T06:59:27;14.27;;;8.47;;
17171;SDS011;8701;50.150;8.756;2022-10-17T07:03:46;8.70;;;7.80;;
17171;SDS011;8701;50.150;8.756;2022-10-17T07:07:49;9.40;;;8.10;;
17171;SDS011;8701;50.150;8.756;2022-10-17T07:11:51;8.10;;;7.30;;
17171;SDS011;8701;50.150;8.756;2022-10-17T07:15:56;7.77;;;7.07;;
17171;SDS011;8701;50.150;8.756;2022-10-17T07:20:02;14.43;;;7.87;;
17171;SDS011;8701;50.150;8.756;2022-10-17T07:24:07;14.03;;;5.80;;
17171;SDS011;8701;50.150;8.756;2022-10-17T07:28:09;8.90;;;4.80;;
17171;SDS011;8701;50.150;8.756;2022-10-17T07:32:14;10.30;;;4.60;;
17171;SDS011;8701;50.150;8.756;2022-10-17T07:36:17;7.67;;;4.30;;
17171;SDS011;8701;50.150;8.756;2022-10-17T07:40:20;11.80;;;4.40;;
17171;SDS011;8701;50.150;8.756;2022-10-17T07:44:23;7.87;;;4.30;;
17171;SDS011;8701;50.150;8.756;2022-10-17T07:48:28;4.67;;;3.80;;
17171;SDS011;8701;50.150;8.756;2022-10-17T07:52:32;7.23;;;3.40;;
17171;SDS011;8701;50.150;8.756;2022-10-17T07:56:35;7.43;;;3.17;;
17171;SDS011;8701;50.150;8.756;2022-10-17T08:00:37;9.47;;;3.73;;
17171;SDS011;8701;50.150;8.756;2022-10-17T08:04:41;7.23;;;4.00;;
17171;SDS011;8701;50.150;8.756;2022-10-17T08:08:43;9.40;;;4.13;;
17171;SDS011;8701;50.150;8.756;2022-10-17T08:12:46;6.63;;;4.20;;
17171;SDS011;8701;50.150;8.756;2022-10-17T08:16:49;6.20;;;4.13;;
17171;SDS011;8701;50.150;8.756;2022-10-17T08:20:53;4.90;;;3.77;;
17171;SDS011;8701;50.150;8.756;2022-10-17T08:24:55;7.63;;;3.80;;
17171;SDS011;8701;50.150;8.756;2022-10-17T08:28:58;6.70;;;4.27;;
17171;SDS011;8701;50.150;8.756;2022-10-17T08:33:00;12.63;;;4.67;;
17171;SDS011;8701;50.150;8.756;2022-10-17T08:37:04;9.87;;;4.50;;
17171;SDS011;8701;50.150;8.756;2022-10-17T08:41:10;10.23;;;5.97;;
17171;SDS011;8701;50.150;8.756;2022-10-17T08:45:17;9.60;;;5.50;;
17171;SDS011;8701;50.150;8.756;2022-10-17T08:49:25;9.47;;;5.27;;
17171;SDS011;8701;50.150;8.756;2022-10-17T08:53:38;15.83;;;4.67;;
17171;SDS011;8701;50.150;8.756;2022-10-17T08:57:46;14.23;;;5.60;;
17171;SDS011;8701;50.150;8.756;2022-10-17T09:01:50;17.83;;;5.60;;
17171;SDS011;8701;50.150;8.756;2022-10-17T09:06:04;12.37;;;5.53;;
17171;SDS011;8701;50.150;8.756;2022-10-17T09:10:19;12.47;;;5.50;;
17171;SDS011;8701;50.150;8.756;2022-10-17T09:19:07;12.40;;;5.50;;
17171;SDS011;8701;50.150;8.756;2022-10-17T09:23:17;9.33;;;4.40;;
17171;SDS011;8701;50.150;8.756;2022-10-17T09:27:24;6.63;;;3.93;;
17171;SDS011;8701;50.150;8.756;2022-10-17T09:31:29;6.97;;;3.27;;
17171;SDS011;8701;50.150;8.756;2022-10-17T09:35:37;7.87;;;3.60;;
17171;SDS011;8701;50.150;8.756;2022-10-17T09:39:41;6.33;;;3.67;;
17171;SDS011;8701;50.150;8.756;2022-10-17T09:43:46;7.83;;;3.80;;
17171;SDS011;8701;50.150;8.756;2022-10-17T09:47:49;9.53;;;3.80;;
17171;SDS011;8701;50.150;8.756;2022-10-17T09:51:58;7.60;;;4.53;;
17171;SDS011;8701;50.150;8.756;2022-10-17T09:56:02;6.03;;;3.80;;
17171;SDS011;8701;50.150;8.756;2022-10-17T10:00:12;8.10;;;3.50;;
17171;SDS011;8701;50.150;8.756;2022-10-17T10:04:22;6.27;;;3.73;;
17171;SDS011;8701;50.150;8.756;2022-10-17T10:08:27;7.27;;;3.40;;
17171;SDS011;8701;50.150;8.756;2022-10-17T10:12:32;6.60;;;2.57;;
17171;SDS011;8701;50.150;8.756;2022-10-17T10:16:40;5.33;;;3.37;;
17171;SDS011;8701;50.150;8.756;2022-10-17T10:20:43;6.00;;;4.30;;
17171;SDS011;8701;50.150;8.756;2022-10-17T10:24:46;7.13;;;3.43;;
17171;SDS011;8701;50.150;8.756;2022-10-17T10:29:17;13.20;;;4.20;;
17171;SDS011;8701;50.150;8.756;2022-10-17T10:33:26;4.23;;;3.10;;
17171;SDS011;8701;50.150;8.756;2022-10-17T10:37:33;10.00;;;3.00;;
17171;SDS011;8701;50.150;8.756;2022-10-17T10:41:44;3.20;;;2.90;;
17171;SDS011;8701;50.150;8.756;2022-10-17T10:45:47;8.43;;;3.10;;
17171;SDS011;8701;50.150;8.756;2022-10-17T10:49:52;6.73;;;2.77;;
17171;SDS011;8701;50.150;8.756;2022-10-17T10:54:09;3.20;;;2.57;;
17171;SDS011;8701;50.150;8.756;2022-10-17T10:58:26;8.50;;;2.80;;
17171;SDS011;8701;50.150;8.756;2022-10-17T11:02:39;7.33;;;2.80;;
17171;SDS011;8701;50.150;8.756;2022-10-17T11:06:51;3.80;;;2.60;;
17171;SDS011;8701;50.150;8.756;2022-10-17T11:11:05;4.10;;;2.90;;
17171;SDS011;8701;50.150;8.756;2022-10-17T11:15:19;4.33;;;2.60;;
17171;SDS011;8701;50.150;8.756;2022-10-17T11:19:28;8.27;;;3.37;;
17171;SDS011;8701;50.150;8.756;2022-10-17T11:23:38;8.63;;;2.57;;
17171;SDS011;8701;50.150;8.756;2022-10-17T11:27:45;3.90;;;2.67;;
17171;SDS011;8701;50.150;8.756;2022-10-17T11:31:49;3.03;;;2.50;;
17171;SDS011;8701;50.150;8.756;2022-10-17T11:35:54;3.20;;;2.40;;
17171;SDS011;8701;50.150;8.756;2022-10-17T11:40:05;8.67;;;2.80;;
17171;SDS011;8701;50.150;8.756;2022-10-17T11:44:18;5.57;;;2.43;;
17171;SDS011;8701;50.150;8.756;2022-10-17T11:48:24;5.20;;;2.40;;
17171;SDS011;8701;50.150;8.756;2022-10-17T11:52:32;4.60;;;2.40;;
17171;SDS011;8701;50.150;8.756;2022-10-17T11:56:41;4.53;;;2.37;;
17171;SDS011;8701;50.150;8.756;2022-10-17T12:00:51;6.80;;;2.17;;
17171;SDS011;8701;50.150;8.756;2022-10-17T12:04:59;7.10;;;2.37;;
17171;SDS011;8701;50.150;8.756;2022-10-17T12:09:08;2.70;;;2.13;;
17171;SDS011;8701;50.150;8.756;2022-10-17T12:17:53;5.53;;;2.27;;
17171;SDS011;8701;50.150;8.756;2022-10-17T12:22:01;4.33;;;1.93;;
17171;SDS011;8701;50.150;8.756;2022-10-17T12:26:24;4.77;;;2.17;;
17171;SDS011;8701;50.150;8.756;2022-10-17T12:30:29;5.40;;;2.17;;
17171;SDS011;8701;50.150;8.756;2022-10-17T12:34:31;5.37;;;2.27;;
17171;SDS011;8701;50.150;8.756;2022-10-17T12:38:33;4.20;;;2.50;;
17171;SDS011;8701;50.150;8.756;2022-10-17T12:42:48;7.80;;;2.23;;
17171;SDS011;8701;50.150;8.756;2022-10-17T12:46:54;7.73;;;2.03;;
17171;SDS011;8701;50.150;8.756;2022-10-17T12:51:02;5.00;;;2.10;;
17171;SDS011;8701;50.150;8.756;2022-10-17T12:55:10;5.47;;;2.20;;
17171;SDS011;8701;50.150;8.756;2022-10-17T12:59:14;5.87;;;2.07;;
17171;SDS011;8701;50.150;8.756;2022-10-17T13:03:23;4.63;;;2.30;;
17171;SDS011;8701;50.150;8.756;2022-10-17T13:07:27;5.73;;;2.10;;
17171;SDS011;8701;50.150;8.756;2022-10-17T13:11:31;3.23;;;2.23;;
17171;SDS011;8701;50.150;8.756;2022-10-17T13:15:34;7.03;;;2.40;;
17171;SDS011;8701;50.150;8.756;2022-10-17T13:19:40;9.17;;;2.83;;
17171;SDS011;8701;50.150;8.756;2022-10-17T13:23:44;8.07;;;3.00;;
17171;SDS011;8701;50.150;8.756;2022-10-17T13:27:48;5.10;;;2.57;;
17171;SDS011;8701;50.150;8.756;2022-10-17T13:31:54;4.90;;;2.27;;
17171;SDS011;8701;50.150;8.756;2022-10-17T13:36:03;6.97;;;2.63;;
17171;SDS011;8701;50.150;8.756;2022-10-17T13:40:14;4.10;;;2.37;;
17171;SDS011;8701;50.150;8.756;2022-10-17T13:44:18;7.50;;;2.13;;
17171;SDS011;8701;50.150;8.756;2022-10-17T13:48:23;13.53;;;3.30;;
17171;SDS011;8701;50.150;8.756;2022-10-17T13:52:29;3.30;;;2.23;;
17171;SDS011;8701;50.150;8.756;2022-10-17T13:56:31;5.83;;;2.73;;
17171;SDS011;8701;50.150;8.756;2022-10-17T14:00:33;7.03;;;2.23;;
17171;SDS011;8701;50.150;8.756;2022-10-17T14:04:36;5.63;;;2.40;;
17171;SDS011;8701;50.150;8.756;2022-10-17T14:08:44;4.10;;;2.50;;
17171;SDS011;8701;50.150;8.756;2022-10-17T14:12:49;4.00;;;2.20;;
17171;SDS011;8701;50.150;8.756;2022-10-17T14:16:52;11.23;;;2.97;;
17171;SDS011;8701;50.150;8.756;2022-10-17T14:20:55;3.40;;;2.27;;
17171;SDS011;8701;50.150;8.756;2022-10-17T14:24:59;8.27;;;2.37;;
17171;SDS011;8701;50.150;8.756;2022-10-17T14:29:03;4.50;;;2.77;;
17171;SDS011;8701;50.150;8.756;2022-10-17T14:33:10;9.17;;;2.63;;
17171;SDS011;8701;50.150;8.756;2022-10-17T14:37:19;12.70;;;2.50;;
17171;SDS011;8701;50.150;8.756;2022-10-17T14:41:33;5.80;;;2.70;;
17171;SDS011;8701;50.150;8.756;2022-10-17T14:45:37;6.50;;;3.07;;
17171;SDS011;8701;50.150;8.756;2022-10-17T14:49:40;5.83;;;2.60;;
17171;SDS011;8701;50.150;8.756;2022-10-17T14:53:43;3.03;;;2.50;;
17171;SDS011;8701;50.150;8.756;2022-10-17T14:58:01;11.93;;;3.20;;
17171;SDS011;8701;50.150;8.756;2022-10-17T15:02:17;6.00;;;3.27;;
17171;SDS011;8701;50.150;8.756;2022-10-17T15:06:21;6.23;;;2.80;;
17171;SDS011;8701;50.150;8.756;2022-10-17T15:10:30;4.67;;;2.60;;
17171;SDS011;8701;50.150;8.756;2022-10-17T15:14:38;2.80;;;2.53;;
17171;SDS011;8701;50.150;8.756;2022-10-17T15:18:48;4.87;;;2.90;;
17171;SDS011;8701;50.150;8.756;2022-10-17T15:22:51;5.93;;;2.67;;
17171;SDS011;8701;50.150;8.756;2022-10-17T15:26:54;3.30;;;2.60;;
17171;SDS011;8701;50.150;8.756;2022-10-17T15:30:57;7.80;;;2.80;;
17171;SDS011;8701;50.150;8.756;2022-10-17T15:35:00;4.50;;;2.90;;
17171;SDS011;8701;50.150;8.756;2022-10-17T15:39:02;6.73;;;3.10;;
17171;SDS011;8701;50.150;8.756;2022-10-17T15:43:05;2.57;;;2.40;;
17171;SDS011;8701;50.150;8.756;2022-10-17T15:47:09;3.77;;;2.40;;
17171;SDS011;8701;50.150;8.756;2022-10-17T15:51:20;10.40;;;3.10;;
17171;SDS011;8701;50.150;8.756;2022-10-17T15:55:23;6.80;;;3.10;;
17171;SDS011;8701;50.150;8.756;2022-10-17T15:59:26;15.17;;;4.17;;
17171;SDS011;8701;50.150;8.756;2022-10-17T16:03:34;5.13;;;3.07;;
17171;SDS011;8701;50.150;8.756;2022-10-17T16:07:36;7.73;;;3.90;;
17171;SDS011;8701;50.150;8.756;2022-10-17T16:11:39;3.90;;;2.90;;
17171;SDS011;8701;50.150;8.756;2022-10-17T16:15:43;14.00;;;3.53;;
17171;SDS011;8701;50.150;8.756;2022-10-17T16:19:48;7.07;;;2.73;;
17171;SDS011;8701;50.150;8.756;2022-10-17T16:23:52;9.00;;;3.40;;
17171;SDS011;8701;50.150;8.756;2022-10-17T16:27:55;10.00;;;3.70;;
17171;SDS011;8701;50.150;8.756;2022-10-17T16:31:59;12.03;;;3.67;;
17171;SDS011;8701;50.150;8.756;2022-10-17T16:36:02;5.07;;;3.67;;
17171;SDS011;8701;50.150;8.756;2022-10-17T16:40:06;6.90;;;3.70;;
17171;SDS011;8701;50.150;8.756;2022-10-17T16:44:10;4.10;;;2.93;;
17171;SDS011;8701;50.150;8.756;2022-10-17T16:48:15;7.57;;;3.50;;
17171;SDS011;8701;50.150;8.756;2022-10-17T16:52:18;7.40;;;3.73;;
17171;SDS011;8701;50.150;8.756;2022-10-17T16:56:21;8.03;;;3.60;;
17171;SDS011;8701;50.150;8.756;2022-10-17T17:00:30;8.60;;;4.10;;
17171;SDS011;8701;50.150;8.756;2022-10-17T17:04:32;7.13;;;4.07;;
17171;SDS011;8701;50.150;8.756;2022-10-17T17:08:36;9.60;;;4.20;;
17171;SDS011;8701;50.150;8.756;2022-10-17T17:12:38;19.13;;;3.70;;
17171;SDS011;8701;50.150;8.756;2022-10-17T17:16:40;7.23;;;4.33;;
17171;SDS011;8701;50.150;8.756;2022-10-17T17:20:43;7.13;;;4.20;;
17171;SDS011;8701;50.150;8.756;2022-10-17T17:24:47;9.00;;;3.80;;
17171;SDS011;8701;50.150;8.756;2022-10-17T17:28:49;11.83;;;4.97;;
17171;SDS011;8701;50.150;8.756;2022-10-17T17:32:52;9.47;;;4.00;;
17171;SDS011;8701;50.150;8.756;2022-10-17T17:36:55;16.27;;;4.67;;
17171;SDS011;8701;50.150;8.756;2022-10-17T17:40:59;7.27;;;4.70;;
17171;SDS011;8701;50.150;8.756;2022-10-17T17:45:01;5.70;;;3.90;;
17171;SDS011;8701;50.150;8.756;2022-10-17T17:49:05;9.60;;;4.77;;
17171;SDS011;8701;50.150;8.756;2022-10-17T17:53:08;15.00;;;4.90;;
17171;SDS011;8701;50.150;8.756;2022-10-17T17:57:12;16.33;;;4.90;;
17171;SDS011;8701;50.150;8.756;2022-10-17T18:01:16;17.83;;;5.33;;
17171;SDS011;8701;50.150;8.756;2022-10-17T18:05:26;10.80;;;5.23;;
17171;SDS011;8701;50.150;8.756;2022-10-17T18:09:36;7.50;;;4.70;;
17171;SDS011;8701;50.150;8.756;2022-10-17T18:13:39;13.93;;;5.47;;
17171;SDS011;8701;50.150;8.756;2022-10-17T18:17:42;11.00;;;5.43;;
17171;SDS011;8701;50.150;8.756;2022-10-17T18:21:44;7.70;;;4.97;;
17171;SDS011;8701;50.150;8.756;2022-10-17T18:25:53;8.00;;;5.23;;
17171;SDS011;8701;50.150;8.756;2022-10-17T18:29:57;19.87;;;5.53;;
17171;SDS011;8701;50.150;8.756;2022-10-17T18:33:59;6.80;;;4.27;;
17171;SDS011;8701;50.150;8.756;2022-10-17T18:38:02;10.50;;;5.10;;
17171;SDS011;8701;50.150;8.756;2022-10-17T18:42:04;8.87;;;5.80;;
17171;SDS011;8701;50.150;8.756;2022-10-17T18:46:09;8.30;;;5.77;;
17171;SDS011;8701;50.150;8.756;2022-10-17T18:50:12;10.87;;;5.50;;
17171;SDS011;8701;50.150;8.756;2022-10-17T18:54:16;15.20;;;5.73;;
17171;SDS011;8701;50.150;8.756;2022-10-17T18:58:20;15.93;;;5.90;;
17171;SDS011;8701;50.150;8.756;2022-10-17T19:02:24;17.30;;;5.80;;
17171;SDS011;8701;50.150;8.756;2022-10-17T19:06:27;10.00;;;6.50;;
17171;SDS011;8701;50.150;8.756;2022-10-17T19:10:32;9.50;;;5.60;;
17171;SDS011;8701;50.150;8.756;2022-10-17T19:14:34;14.77;;;7.90;;
17171;SDS011;8701;50.150;8.756;2022-10-17T19:18:47;16.50;;;7.30;;
17171;SDS011;8701;50.150;8.756;2022-10-17T19:22:50;15.10;;;6.70;;
17171;SDS011;8701;50.150;8.756;2022-10-17T19:26:54;16.10;;;6.17;;
17171;SDS011;8701;50.150;8.756;2022-10-17T19:30:59;11.80;;;6.17;;
17171;SDS011;8701;50.150;8.756;2022-10-17T19:35:05;9.93;;;6.10;;
17171;SDS011;8701;50.150;8.756;2022-10-17T19:39:13;21.37;;;7.43;;
17171;SDS011;8701;50.150;8.756;2022-10-17T19:43:17;13.53;;;7.20;;
17171;SDS011;8701;50.150;8.756;2022-10-17T19:47:21;10.60;;;6.20;;
17171;SDS011;8701;50.150;8.756;2022-10-17T19:51:26;9.80;;;5.97;;
17171;SDS011;8701;50.150;8.756;2022-10-17T19:55:30;15.20;;;6.07;;
17171;SDS011;8701;50.150;8.756;2022-10-17T19:59:33;14.03;;;5.47;;
17171;SDS011;8701;50.150;8.756;2022-10-17T20:03:35;9.97;;;5.17;;
17171;SDS011;8701;50.150;8.756;2022-10-17T20:07:40;9.80;;;5.40;;
17171;SDS011;8701;50.150;8.756;2022-10-17T20:11:42;10.30;;;5.80;;
17171;SDS011;8701;50.150;8.756;2022-10-17T20:15:52;14.63;;;6.60;;
17171;SDS011;8701;50.150;8.756;2022-10-17T20:19:54;8.17;;;5.83;;
17171;SDS011;8701;50.150;8.756;2022-10-17T20:23:58;15.70;;;6.10;;
17171;SDS011;8701;50.150;8.756;2022-10-17T20:28:06;7.57;;;5.57;;
17171;SDS011;8701;50.150;8.756;2022-10-17T20:32:10;17.60;;;6.40;;
17171;SDS011;8701;50.150;8.756;2022-10-17T20:36:16;10.00;;;6.10;;
17171;SDS011;8701;50.150;8.756;2022-10-17T20:40:24;13.03;;;6.27;;
17171;SDS011;8701;50.150;8.756;2022-10-17T20:44:26;9.83;;;6.40;;
17171;SDS011;8701;50.150;8.756;2022-10-17T20:48:28;12.97;;;6.20;;
17171;SDS011;8701;50.150;8.756;2022-10-17T20:52:33;11.80;;;6.70;;
17171;SDS011;8701;50.150;8.756;2022-10-17T20:56:38;9.73;;;6.70;;
17171;SDS011;8701;50.150;8.756;2022-10-17T21:00:40;17.10;;;7.57;;
17171;SDS011;8701;50.150;8.756;2022-10-17T21:04:43;8.60;;;6.27;;
17171;SDS011;8701;50.150;8.756;2022-10-17T21:08:55;19.53;;;6.63;;
17171;SDS011;8701;50.150;8.756;2022-10-17T21:12:59;11.70;;;6.70;;
17171;SDS011;8701;50.150;8.756;2022-10-17T21:17:02;9.80;;;6.13;;
17171;SDS011;8701;50.150;8.756;2022-10-17T21:21:08;8.37;;;6.03;;
17171;SDS011;8701;50.150;8.756;2022-10-17T21:25:18;11.70;;;6.00;;
17171;SDS011;8701;50.150;8.756;2022-10-17T21:29:22;13.60;;;6.80;;
17171;SDS011;8701;50.150;8.756;2022-10-17T21:33:27;13.93;;;6.50;;
17171;SDS011;8701;50.150;8.756;2022-10-17T21:37:29;14.13;;;5.97;;
17171;SDS011;8701;50.150;8.756;2022-10-17T21:41:32;9.73;;;6.40;;
17171;SDS011;8701;50.150;8.756;2022-10-17T21:45:35;12.40;;;6.10;;
17171;SDS011;8701;50.150;8.756;2022-10-17T21:49:38;12.07;;;6.93;;
17171;SDS011;8701;50.150;8.756;2022-10-17T21:53:42;8.17;;;6.77;;
17171;SDS011;8701;50.150;8.756;2022-10-17T21:57:45;15.40;;;6.37;;
17171;SDS011;8701;50.150;8.756;2022-10-17T22:01:52;9.80;;;6.17;;
17171;SDS011;8701;50.150;8.756;2022-10-17T22:05:55;10.53;;;6.17;;
17171;SDS011;8701;50.150;8.756;2022-10-17T22:09:58;11.57;;;5.97;;
17171;SDS011;8701;50.150;8.756;2022-10-17T22:14:11;8.67;;;5.73;;
17171;SDS011;8701;50.150;8.756;2022-10-17T22:18:16;10.33;;;6.30;;
17171;SDS011;8701;50.150;8.756;2022-10-17T22:22:18;8.60;;;6.30;;
17171;SDS011;8701;50.150;8.756;2022-10-17T22:26:23;8.17;;;6.13;;
17171;SDS011;8701;50.150;8.756;2022-10-17T22:30:25;13.60;;;6.27;;
17171;SDS011;8701;50.150;8.756;2022-10-17T22:34:29;18.57;;;6.13;;
17171;SDS011;8701;50.150;8.756;2022-10-17T22:38:31;11.20;;;6.07;;
17171;SDS011;8701;50.150;8.756;2022-10-17T22:42:39;11.83;;;6.20;;
17171;SDS011;8701;50.150;8.756;2022-10-17T22:46:42;13.73;;;5.80;;
17171;SDS011;8701;50.150;8.756;2022-10-17T22:50:46;10.50;;;6.00;;
17171;SDS011;8701;50.150;8.756;2022-10-17T22:54:48;11.37;;;6.27;;
17171;SDS011;8701;50.150;8.756;2022-10-17T22:58:53;10.93;;;5.57;;
17171;SDS011;8701;50.150;8.756;2022-10-17T23:02:58;9.20;;;6.23;;
17171;SDS011;8701;50.150;8.756;2022-10-17T23:07:02;7.80;;;6.07;;
17171;SDS011;8701;50.150;8.756;2022-10-17T23:11:07;13.07;;;6.00;;
17171;SDS011;8701;50.150;8.756;2022-10-17T23:15:09;8.73;;;5.80;;
17171;SDS011;8701;50.150;8.756;2022-10-17T23:19:11;8.17;;;6.07;;
17171;SDS011;8701;50.150;8.756;2022-10-17T23:23:15;13.57;;;5.80;;
17171;SDS011;8701;50.150;8.756;2022-10-17T23:27:18;12.90;;;6.33;;
17171;SDS011;8701;50.150;8.756;2022-10-17T23:31:21;13.90;;;6.47;;
17171;SDS011;8701;50.150;8.756;2022-10-17T23:35:23;12.20;;;8.13;;
17171;SDS011;8701;50.150;8.756;2022-10-17T23:39:29;12.20;;;7.30;;
17171;SDS011;8701;50.150;8.756;2022-10-17T23:43:31;12.03;;;6.90;;
17171;SDS011;8701;50.150;8.756;2022-10-17T23:47:33;14.63;;;8.97;;
17171;SDS011;8701;50.150;8.756;2022-10-17T23:51:36;8.93;;;6.70;;
17171;SDS011;8701;50.150;8.756;2022-10-17T23:55:39;10.00;;;6.30;;
17171;SDS011;8701;50.150;8.756;2022-10-17T23:59:42;10.63;;;6.63;;
